createdAt,value
2023-04-02T00:01:45.059Z,99977.99
2023-04-02T00:06:05.340Z,99986.42
2023-04-02T00:09:41.980Z,99988.38
2023-04-02T00:13:26.555Z,99990.79
2023-04-02T00:16:56.429Z,99995.15
2023-04-02T00:20:24.251Z,100002.42
2023-04-02T00:23:51.349Z,100002.90
2023-04-02T00:27:18.930Z,100009.73
2023-04-02T00:30:53.141Z,100013.63
2023-04-02T00:34:28.697Z,100016.14
2023-04-02T00:37:58.284Z,100012.56
2023-04-02T00:41:29.991Z,100014.05
2023-04-02T00:44:59.273Z,100014.62
2023-04-02T00:48:42.805Z,100020.04
2023-04-02T00:52:12.059Z,100020.73
2023-04-02T00:55:43.024Z,100022.55
2023-04-02T00:59:25.369Z,100031.25
2023-04-02T01:03:31.081Z,100037.43
2023-04-02T01:07:00.345Z,100046.05
2023-04-02T01:10:49.150Z,100048.56
2023-04-02T01:14:30.817Z,100052.91
2023-04-02T01:18:21.805Z,100055.06
2023-04-02T01:22:08.030Z,100059.50
2023-04-02T01:25:46.939Z,100064.21
2023-04-02T01:29:44.242Z,100068.48
2023-04-02T01:33:18.855Z,100069.86
2023-04-02T01:37:05.038Z,100070.52
2023-04-02T01:41:01.960Z,100078.18
2023-04-02T01:44:40.320Z,100082.94
2023-04-02T01:48:20.881Z,100085.04
2023-04-02T01:52:16.848Z,100087.69
2023-04-02T01:56:01.091Z,100094.52
2023-04-02T01:59:55.700Z,100097.09
2023-04-02T02:03:24.940Z,100101.95
2023-04-02T02:06:55.514Z,100108.27
2023-04-02T02:10:47.219Z,100108.98
2023-04-02T02:14:27.996Z,100113.36
2023-04-02T02:18:04.183Z,100114.80
2023-04-02T02:21:47.548Z,100119.11
2023-04-02T02:25:19.012Z,100120.16
2023-04-02T02:29:01.114Z,100123.77
2023-04-02T02:32:54.338Z,100126.95
2023-04-02T02:36:54.207Z,100127.27
2023-04-02T02:40:28.754Z,100127.55
2023-04-02T02:44:06.875Z,100128.56
2023-04-02T02:47:39.035Z,100135.00
2023-04-02T02:51:23.752Z,100141.05
2023-04-02T02:54:56.782Z,100144.17
2023-04-02T02:58:31.757Z,100142.76
2023-04-02T03:02:29.606Z,100153.18
2023-04-02T03:06:03.323Z,100155.97
2023-04-02T03:09:45.444Z,100158.23
2023-04-02T03:13:24.207Z,100170.00
2023-04-02T03:17:02.720Z,100172.88
2023-04-02T03:20:40.852Z,100174.73
2023-04-02T03:24:16.414Z,100181.58
2023-04-02T03:27:48.198Z,100181.52
2023-04-02T03:31:29.356Z,100182.34
2023-04-02T03:35:03.940Z,100191.76
2023-04-02T03:38:39.987Z,100196.33
2023-04-02T03:42:17.108Z,100197.49
2023-04-02T03:45:47.883Z,100203.22
2023-04-02T03:49:26.630Z,100209.11
2023-04-02T03:52:54.725Z,100218.52
2023-04-02T03:56:31.859Z,100220.80
2023-04-02T04:00:06.144Z,100227.01
2023-04-02T04:04:51.888Z,100233.30
2023-04-02T04:10:21.324Z,100245.44
2023-04-02T04:14:58.678Z,100251.88
2023-04-02T04:18:40.073Z,100256.86
2023-04-02T04:22:59.263Z,100264.91
2023-04-02T04:27:34.005Z,100268.09
2023-04-02T04:31:57.740Z,100273.66
2023-04-02T04:36:18.368Z,100280.64
2023-04-02T04:40:59.610Z,100283.00
2023-04-02T04:44:57.183Z,100287.90
2023-04-02T04:48:35.164Z,100291.27
2023-04-02T04:52:18.021Z,100301.46
2023-04-02T04:55:51.748Z,100305.82
2023-04-02T04:59:27.600Z,100311.08
2023-04-02T05:03:10.828Z,100319.43
2023-04-02T05:06:48.533Z,100323.17
2023-04-02T05:10:28.231Z,100329.77
2023-04-02T05:14:07.058Z,100337.30
2023-04-02T05:17:42.533Z,100341.04
2023-04-02T05:21:21.479Z,100347.35
2023-04-02T05:25:05.256Z,100354.25
2023-04-02T05:28:43.445Z,100354.48
2023-04-02T05:32:19.990Z,100364.45
2023-04-02T05:35:56.564Z,100365.67
2023-04-02T05:39:33.356Z,100368.73
2023-04-02T05:43:10.166Z,100371.31
2023-04-02T05:46:50.300Z,100375.97
2023-04-02T05:50:30.989Z,100377.67
2023-04-02T05:54:07.926Z,100376.57
2023-04-02T05:57:46.903Z,100381.80
2023-04-02T06:01:38.609Z,100387.03
2023-04-02T06:05:29.382Z,100393.50
2023-04-02T06:09:04.804Z,100399.29
2023-04-02T06:12:40.890Z,100409.58
2023-04-02T06:16:12.578Z,100410.77
2023-04-02T06:19:43.482Z,100419.34
2023-04-02T06:23:18.779Z,100428.60
2023-04-02T06:26:53.067Z,100429.30
2023-04-02T06:30:26.740Z,100435.14
2023-04-02T06:33:55.667Z,100438.27
2023-04-02T06:37:32.624Z,100442.78
2023-04-02T06:41:20.639Z,100446.89
2023-04-02T06:45:16.819Z,100454.40
2023-04-02T06:48:50.200Z,100454.14
2023-04-02T06:52:26.453Z,100460.11
2023-04-02T06:56:01.565Z,100469.92
2023-04-02T06:59:31.645Z,100476.05
2023-04-02T07:03:03.746Z,100479.24
2023-04-02T07:06:35.629Z,100485.41
2023-04-02T07:10:09.894Z,100491.56
2023-04-02T07:13:40.340Z,100493.30
2023-04-02T07:17:45.502Z,100498.46
2023-04-02T07:21:20.334Z,100502.59
2023-04-02T07:25:01.359Z,100510.48
2023-04-02T07:29:20.554Z,100517.79
2023-04-02T07:33:18.165Z,100524.11
2023-04-02T07:36:49.833Z,100530.39
2023-04-02T07:40:25.546Z,100535.23
2023-04-02T07:44:44.620Z,100536.65
2023-04-02T07:49:13.567Z,100539.89
2023-04-02T07:52:47.010Z,100540.83
2023-04-02T07:56:23.377Z,100548.80
2023-04-02T07:59:56.915Z,100553.89
2023-04-02T08:03:28.258Z,100559.45
2023-04-02T08:07:00.763Z,100563.33
2023-04-02T08:10:32.036Z,100568.79
2023-04-02T08:14:01.961Z,100565.46
2023-04-02T08:17:31.647Z,100570.61
2023-04-02T08:21:20.327Z,100576.44
2023-04-02T08:24:59.051Z,100579.60
2023-04-02T08:28:28.979Z,100586.01
2023-04-02T08:31:59.228Z,100592.42
2023-04-02T08:35:31.139Z,100599.89
2023-04-02T08:38:59.748Z,100604.89
2023-04-02T08:42:52.505Z,100607.29
2023-04-02T08:46:46.017Z,100609.67
2023-04-02T08:50:30.720Z,100615.95
2023-04-02T08:54:06.360Z,100621.79
2023-04-02T08:57:48.613Z,100622.39
2023-04-02T09:01:32.697Z,100633.88
2023-04-02T09:05:04.497Z,100639.45
2023-04-02T09:08:34.164Z,100641.41
2023-04-02T09:12:42.375Z,100646.08
2023-04-02T09:16:19.492Z,100639.79
2023-04-02T09:20:06.373Z,100645.56
2023-04-02T09:23:41.111Z,100650.70
2023-04-02T09:27:24.476Z,100656.88
2023-04-02T09:31:18.535Z,100660.05
2023-04-02T09:34:46.512Z,100675.16
2023-04-02T09:38:23.703Z,100683.94
2023-04-02T09:42:05.549Z,100689.51
2023-04-02T09:45:37.648Z,100690.84
2023-04-02T09:49:16.917Z,100694.25
2023-04-02T09:52:49.331Z,100700.33
2023-04-02T09:56:26.727Z,100700.87
2023-04-02T10:00:41.526Z,100703.30
2023-04-02T10:04:28.551Z,100713.50
2023-04-02T10:07:57.380Z,100719.05
2023-04-02T10:11:36.424Z,100720.29
2023-04-02T10:15:18.147Z,100725.13
2023-04-02T10:18:54.374Z,100732.39
2023-04-02T10:22:27.337Z,100741.26
2023-04-02T10:26:06.711Z,100743.91
2023-04-02T10:30:06.891Z,100744.26
2023-04-02T10:33:43.600Z,100746.78
2023-04-02T10:37:43.509Z,100751.41
2023-04-02T10:41:37.317Z,100757.23
2023-04-02T10:45:15.196Z,100760.73
2023-04-02T10:48:55.815Z,100768.23
2023-04-02T10:52:28.205Z,100772.67
2023-04-02T10:56:01.720Z,100778.84
2023-04-02T10:59:35.564Z,100779.98
2023-04-02T11:03:07.501Z,100786.14
2023-04-02T11:06:40.789Z,100786.49
2023-04-02T11:10:16.678Z,100792.64
2023-04-02T11:13:56.031Z,100799.75
2023-04-02T11:17:26.881Z,100806.88
2023-04-02T11:21:08.757Z,100814.93
2023-04-02T11:24:45.032Z,100819.73
2023-04-02T11:28:36.555Z,100829.15
2023-04-02T11:32:34.019Z,100831.04
2023-04-02T11:36:05.839Z,100827.49
2023-04-02T11:39:56.952Z,100831.94
2023-04-02T11:43:53.063Z,100832.39
2023-04-02T11:47:22.965Z,100846.02
2023-04-02T11:50:49.996Z,100844.14
2023-04-02T11:54:30.752Z,100843.89
2023-04-02T11:58:27.352Z,100844.06
2023-04-02T12:02:19.317Z,100854.06
2023-04-02T12:05:59.152Z,100861.71
2023-04-02T12:09:28.744Z,100861.30
2023-04-02T12:12:56.216Z,100869.63
2023-04-02T12:16:29.450Z,100877.28
2023-04-02T12:19:58.733Z,100890.83
2023-04-02T12:23:30.087Z,100893.56
2023-04-02T12:27:15.474Z,100896.13
2023-04-02T12:30:43.594Z,100902.47
2023-04-02T12:34:18.570Z,100907.09
2023-04-02T12:37:45.285Z,100901.98
2023-04-02T12:41:24.879Z,100908.14
2023-04-02T12:44:53.629Z,100909.44
2023-04-02T12:48:23.335Z,100917.56
2023-04-02T12:51:52.284Z,100925.24
2023-04-02T12:55:25.566Z,100935.66
2023-04-02T12:58:59.847Z,100941.33
2023-04-02T13:02:30.373Z,100941.39
2023-04-02T13:05:59.291Z,100948.44
2023-04-02T13:09:36.299Z,100949.81
2023-04-02T13:13:07.136Z,100955.39
2023-04-02T13:16:40.255Z,100955.82
2023-04-02T13:20:35.660Z,100954.66
2023-04-02T13:24:06.171Z,100958.05
2023-04-02T13:27:41.779Z,100968.69
2023-04-02T13:31:10.394Z,100975.45
2023-04-02T13:34:40.371Z,100984.59
2023-04-02T13:38:09.860Z,100993.20
2023-04-02T13:41:45.511Z,100994.48
2023-04-02T13:45:26.292Z,101000.71
2023-04-02T13:48:56.335Z,101003.54
2023-04-02T13:52:23.746Z,101003.20
2023-04-02T13:55:54.455Z,101002.79
2023-04-02T13:59:26.932Z,101003.69
2023-04-02T14:03:02.961Z,101004.31
2023-04-02T14:06:41.318Z,101019.66
2023-04-02T14:10:22.376Z,101021.10
2023-04-02T14:14:18.063Z,101022.30
2023-04-02T14:18:01.986Z,101022.64
2023-04-02T14:21:37.059Z,101029.55
2023-04-02T14:25:14.941Z,101031.48
2023-04-02T14:28:50.966Z,101043.40
2023-04-02T14:32:26.200Z,101046.24
2023-04-02T14:35:59.946Z,101052.05
2023-04-02T14:39:44.925Z,101056.91
2023-04-02T14:43:17.995Z,101059.44
2023-04-02T14:46:45.280Z,101062.30
2023-04-02T14:50:19.516Z,101065.92
2023-04-02T14:53:55.334Z,101069.59
2023-04-02T14:57:25.314Z,101069.23
2023-04-02T15:00:59.919Z,101076.11
2023-04-02T15:04:34.865Z,101077.06
2023-04-02T15:08:07.916Z,101084.33
2023-04-02T15:11:38.664Z,101084.86
2023-04-02T15:15:24.369Z,101099.22
2023-04-02T15:18:57.453Z,101112.71
2023-04-02T15:22:34.853Z,101115.85
2023-04-02T15:26:11.647Z,101123.40
2023-04-02T15:29:48.794Z,101126.55
2023-04-02T15:33:40.087Z,101141.56
2023-04-02T15:37:23.656Z,101141.98
2023-04-02T15:41:00.913Z,101144.96
2023-04-02T15:44:28.191Z,101154.30
2023-04-02T15:48:18.621Z,101160.27
2023-04-02T15:52:02.008Z,101166.87
2023-04-02T15:55:37.947Z,101169.46
2023-04-02T15:59:33.261Z,101177.65
2023-04-02T16:03:42.521Z,101180.61
2023-04-02T16:07:27.555Z,101181.10
2023-04-02T16:10:54.641Z,101195.86
2023-04-02T16:14:27.789Z,101202.27
2023-04-02T16:18:00.673Z,101207.16
2023-04-02T16:21:33.145Z,101209.30
2023-04-02T16:25:06.114Z,101215.55
2023-04-02T16:28:37.996Z,101225.36
2023-04-02T16:32:12.864Z,101231.04
2023-04-02T16:35:46.758Z,101237.51
2023-04-02T16:39:27.587Z,101244.65
2023-04-02T16:43:02.955Z,101240.53
2023-04-02T16:46:43.018Z,101245.45
2023-04-02T16:50:21.315Z,101246.25
2023-04-02T16:54:02.182Z,101248.89
2023-04-02T16:57:39.290Z,101257.73
2023-04-02T17:01:14.577Z,101262.27
2023-04-02T17:04:58.291Z,101272.14
2023-04-02T17:08:28.217Z,101280.12
2023-04-02T17:12:02.563Z,101280.00
2023-04-02T17:15:35.049Z,101282.67
2023-04-02T17:19:08.051Z,101290.16
2023-04-02T17:22:37.647Z,101294.20
2023-04-02T17:26:11.572Z,101300.65
2023-04-02T17:29:44.112Z,101300.91
2023-04-02T17:33:16.045Z,101305.27
2023-04-02T17:36:51.436Z,101310.80
2023-04-02T17:40:28.481Z,101314.30
2023-04-02T17:44:05.908Z,101323.80
2023-04-02T17:47:42.595Z,101331.73
2023-04-02T17:51:33.057Z,101332.34
2023-04-02T17:55:17.355Z,101336.86
2023-04-02T17:59:17.763Z,101341.38
2023-04-02T18:03:01.472Z,101347.24
2023-04-02T18:06:31.995Z,101352.43
2023-04-02T18:10:13.799Z,101361.57
2023-04-02T18:13:50.330Z,101369.67
2023-04-02T18:17:29.134Z,101367.48
2023-04-02T18:21:12.093Z,101378.86
2023-04-02T18:24:52.252Z,101381.45
2023-04-02T18:28:35.304Z,101387.81
2023-04-02T18:32:16.768Z,101392.98
2023-04-02T18:35:54.396Z,101401.92
2023-04-02T18:39:35.459Z,101405.86
2023-04-02T18:43:16.345Z,101412.06
2023-04-02T18:46:51.714Z,101424.44
2023-04-02T18:50:31.329Z,101433.02
2023-04-02T18:54:14.137Z,101430.97
2023-04-02T18:57:44.458Z,101440.24
2023-04-02T19:01:20.122Z,101443.34
2023-04-02T19:04:53.804Z,101449.88
2023-04-02T19:08:26.112Z,101453.98
2023-04-02T19:11:54.636Z,101457.25
2023-04-02T19:15:24.012Z,101462.06
2023-04-02T19:19:02.754Z,101467.21
2023-04-02T19:22:43.356Z,101467.23
2023-04-02T19:26:14.944Z,101471.15
2023-04-02T19:29:58.243Z,101474.25
2023-04-02T19:33:36.147Z,101475.97
2023-04-02T19:37:08.218Z,101479.55
2023-04-02T19:40:47.170Z,101484.71
2023-04-02T19:44:17.359Z,101484.02
2023-04-02T19:47:44.433Z,101483.67
2023-04-02T19:51:13.759Z,101485.73
2023-04-02T19:54:41.611Z,101491.05
2023-04-02T19:58:19.166Z,101493.44
2023-04-02T20:01:47.399Z,101498.07
2023-04-02T20:05:19.167Z,101500.48
2023-04-02T20:08:46.583Z,101508.17
2023-04-02T20:12:15.314Z,101506.62
2023-04-02T20:15:43.543Z,101511.58
2023-04-02T20:19:11.844Z,101517.06
2023-04-02T20:22:41.162Z,101519.95
2023-04-02T20:26:12.149Z,101524.07
2023-04-02T20:29:41.432Z,101530.41
2023-04-02T20:33:09.729Z,101528.34
2023-04-02T20:36:37.944Z,101531.77
2023-04-02T20:40:05.043Z,101536.91
2023-04-02T20:43:36.290Z,101540.83
2023-04-02T20:47:03.689Z,101542.55
2023-04-02T20:50:31.645Z,101548.20
2023-04-02T20:53:59.525Z,101554.71
2023-04-02T20:57:27.953Z,101550.44
2023-04-02T21:01:06.691Z,101557.82
2023-04-02T21:04:34.430Z,101562.45
2023-04-02T21:08:03.056Z,101562.95
2023-04-02T21:11:32.897Z,101566.89
2023-04-02T21:15:02.316Z,101567.03
2023-04-02T21:18:30.754Z,101569.23
2023-04-02T21:21:59.893Z,101575.21
2023-04-02T21:25:28.014Z,101584.78
2023-04-02T21:28:55.291Z,101582.02
2023-04-02T21:32:22.914Z,101581.83
2023-04-02T21:35:50.932Z,101584.91
2023-04-02T21:39:24.142Z,101588.82
2023-04-02T21:42:51.749Z,101589.16
2023-04-02T21:46:19.956Z,101590.52
2023-04-02T21:49:47.454Z,101597.16
2023-04-02T21:53:15.287Z,101603.31
2023-04-02T21:56:44.196Z,101607.06
2023-04-02T22:00:14.621Z,101611.31
2023-04-02T22:03:44.043Z,101612.85
2023-04-02T22:07:12.212Z,101618.50
2023-04-02T22:10:41.888Z,101619.18
2023-04-02T22:14:18.643Z,101621.75
2023-04-02T22:17:47.544Z,101627.73
2023-04-02T22:21:17.336Z,101627.73
2023-04-02T22:24:44.955Z,101635.44
2023-04-02T22:28:13.960Z,101629.11
2023-04-02T22:31:44.515Z,101627.40
2023-04-02T22:35:15.090Z,101633.61
2023-04-02T22:38:43.081Z,101631.73
2023-04-02T22:42:10.817Z,101634.13
2023-04-02T22:45:38.078Z,101635.63
2023-04-02T22:49:05.841Z,101636.68
2023-04-02T22:52:32.974Z,101639.40
2023-04-02T22:56:07.163Z,101643.84
2023-04-02T22:59:34.441Z,101645.35
2023-04-02T23:03:01.554Z,101645.98
2023-04-02T23:06:29.321Z,101650.37
2023-04-02T23:09:57.409Z,101652.39
2023-04-02T23:13:25.973Z,101652.02
2023-04-02T23:16:54.281Z,101652.31
2023-04-02T23:20:21.492Z,101653.67
2023-04-02T23:23:49.296Z,101655.38
2023-04-02T23:27:17.100Z,101654.64
2023-04-02T23:30:47.685Z,101655.15
2023-04-02T23:34:15.133Z,101654.97
2023-04-02T23:37:43.492Z,101661.11
2023-04-02T23:41:16.094Z,101663.17
2023-04-02T23:44:43.466Z,101669.67
2023-04-02T23:48:11.661Z,101672.75
2023-04-02T23:51:39.018Z,101676.00
2023-04-02T23:55:08.520Z,101673.80
2023-04-02T23:58:35.372Z,101672.14
